createdAt,value
2023-04-21T00:00:53.620Z,10.19
2023-04-21T00:01:53.602Z,10.19
2023-04-21T00:02:53.682Z,10.18
2023-04-21T00:03:53.762Z,10.19
2023-04-21T00:04:53.673Z,10.19
2023-04-21T00:05:53.610Z,10.21
2023-04-21T00:06:53.536Z,10.19
2023-04-21T00:07:53.544Z,10.19
2023-04-21T00:08:53.509Z,10.18
2023-04-21T00:09:53.496Z,10.18
2023-04-21T00:10:53.479Z,10.19
2023-04-21T00:11:53.465Z,10.19
2023-04-21T00:12:53.458Z,10.19
2023-04-21T00:13:53.445Z,10.18
2023-04-21T00:14:53.431Z,10.17
2023-04-21T00:15:53.442Z,10.19
2023-04-21T00:16:53.405Z,10.21
2023-04-21T00:17:53.448Z,10.21
2023-04-21T00:18:53.370Z,10.21
2023-04-21T00:19:53.365Z,10.19
2023-04-21T00:20:53.359Z,10.19
2023-04-21T00:21:53.341Z,10.18
2023-04-21T00:22:53.327Z,10.18
2023-04-21T00:23:53.332Z,10.19
2023-04-21T00:24:53.299Z,10.19
2023-04-21T00:25:53.282Z,10.18
2023-04-21T00:26:53.269Z,10.18
2023-04-21T00:27:53.255Z,10.18
2023-04-21T00:28:53.237Z,10.18
2023-04-21T00:29:53.235Z,10.18
2023-04-21T00:30:53.213Z,10.18
2023-04-21T00:31:53.337Z,10.18
2023-04-21T00:32:53.208Z,10.19
2023-04-21T00:33:53.172Z,10.19
2023-04-21T00:34:53.164Z,10.18
2023-04-21T00:35:53.152Z,10.18
2023-04-21T00:36:53.136Z,10.18
2023-04-21T00:37:53.118Z,10.18
2023-04-21T00:38:53.104Z,10.18
2023-04-21T00:39:53.118Z,10.18
2023-04-21T00:40:53.092Z,10.18
2023-04-21T00:41:53.073Z,10.17
2023-04-21T00:42:53.053Z,10.18
2023-04-21T00:43:53.044Z,10.18
2023-04-21T00:44:53.025Z,10.18
2023-04-21T00:45:53.014Z,10.17
2023-04-21T00:46:53.026Z,10.18
2023-04-21T00:47:53.062Z,10.17
2023-04-21T00:48:52.974Z,10.17
2023-04-21T00:49:52.961Z,10.18
2023-04-21T00:50:52.945Z,10.18
2023-04-21T00:51:52.932Z,10.17
2023-04-21T00:52:52.924Z,10.17
2023-04-21T00:53:52.907Z,10.18
2023-04-21T00:54:52.892Z,10.18
2023-04-21T00:55:52.904Z,10.17
2023-04-21T00:56:52.870Z,10.17
2023-04-21T00:57:52.853Z,10.18
2023-04-21T00:58:52.836Z,10.18
2023-04-21T00:59:52.831Z,10.15
2023-04-21T01:00:52.887Z,10.17
2023-04-21T01:01:52.874Z,10.17
2023-04-21T01:02:52.978Z,10.18
2023-04-21T01:03:52.916Z,10.18
2023-04-21T01:04:52.765Z,10.18
2023-04-21T01:05:52.748Z,10.18
2023-04-21T01:06:52.742Z,10.17
2023-04-21T01:07:52.747Z,10.17
2023-04-21T01:08:52.703Z,10.18
2023-04-21T01:09:52.701Z,10.17
2023-04-21T01:10:52.676Z,10.18
2023-04-21T01:11:52.691Z,10.17
2023-04-21T01:12:52.651Z,10.17
2023-04-21T01:13:52.637Z,10.17
2023-04-21T01:14:52.642Z,10.17
2023-04-21T01:15:52.616Z,10.17
2023-04-21T01:16:52.772Z,10.17
2023-04-21T01:17:52.742Z,10.18
2023-04-21T01:18:52.572Z,10.17
2023-04-21T01:19:52.560Z,10.18
2023-04-21T01:20:52.551Z,10.18
2023-04-21T01:21:52.537Z,10.17
2023-04-21T01:22:52.522Z,10.15
2023-04-21T01:23:52.504Z,10.15
2023-04-21T01:24:52.491Z,10.17
2023-04-21T01:25:52.481Z,10.17
2023-04-21T01:26:52.465Z,10.15
2023-04-21T01:27:52.493Z,10.17
2023-04-21T01:28:52.438Z,10.17
2023-04-21T01:29:52.426Z,10.17
2023-04-21T01:30:52.426Z,10.18
2023-04-21T01:31:52.447Z,10.17
2023-04-21T01:32:52.424Z,10.15
2023-04-21T01:33:52.385Z,10.15
2023-04-21T01:34:52.365Z,10.17
2023-04-21T01:35:52.344Z,10.17
2023-04-21T01:36:52.334Z,10.15
2023-04-21T01:37:52.321Z,10.17
2023-04-21T01:38:52.304Z,10.18
2023-04-21T01:39:52.341Z,10.18
2023-04-21T01:40:52.297Z,10.19
2023-04-21T01:41:52.264Z,10.18
2023-04-21T01:42:52.255Z,10.17
2023-04-21T01:43:52.262Z,10.18
2023-04-21T01:44:52.231Z,10.17
2023-04-21T01:45:52.247Z,10.17
2023-04-21T01:46:52.200Z,10.17
2023-04-21T01:47:52.227Z,10.17
2023-04-21T01:48:52.173Z,10.17
2023-04-21T01:49:52.160Z,10.17
2023-04-21T01:50:52.149Z,10.17
2023-04-21T01:51:52.142Z,10.17
2023-04-21T01:52:52.124Z,10.15
2023-04-21T01:53:52.103Z,10.15
2023-04-21T01:54:52.109Z,10.15
2023-04-21T01:55:52.081Z,10.15
2023-04-21T01:56:52.120Z,10.15
2023-04-21T01:57:52.053Z,10.15
2023-04-21T01:58:52.043Z,10.15
2023-04-21T01:59:52.052Z,10.17
2023-04-21T02:00:52.023Z,10.18
2023-04-21T02:01:52.127Z,10.17
2023-04-21T02:02:52.093Z,10.17
2023-04-21T02:03:52.209Z,10.15
2023-04-21T02:04:51.976Z,10.17
2023-04-21T02:05:51.951Z,10.17
2023-04-21T02:06:51.938Z,10.15
2023-04-21T02:07:51.920Z,10.15
2023-04-21T02:08:51.907Z,10.15
2023-04-21T02:09:51.899Z,10.17
2023-04-21T02:10:51.882Z,10.15
2023-04-21T02:11:51.864Z,10.17
2023-04-21T02:12:51.872Z,10.15
2023-04-21T02:13:51.836Z,10.14
2023-04-21T02:14:51.824Z,10.15
2023-04-21T02:16:02.519Z,10.15
2023-04-21T02:16:53.111Z,10.17
2023-04-21T02:17:51.843Z,10.17
2023-04-21T02:18:51.772Z,10.17
2023-04-21T02:19:51.755Z,10.15
2023-04-21T02:20:51.747Z,10.15
2023-04-21T02:21:51.726Z,10.17
2023-04-21T02:22:51.719Z,10.14
2023-04-21T02:23:51.717Z,10.15
2023-04-21T02:24:51.692Z,10.15
2023-04-21T02:25:51.681Z,10.15
2023-04-21T02:26:51.663Z,10.14
2023-04-21T02:27:51.652Z,10.15
2023-04-21T02:28:51.639Z,10.15
2023-04-21T02:29:51.626Z,10.15
2023-04-21T02:30:51.615Z,10.14
2023-04-21T02:32:00.809Z,10.17
2023-04-21T02:32:52.849Z,10.14
2023-04-21T02:33:51.570Z,10.15
2023-04-21T02:34:51.554Z,10.17
2023-04-21T02:35:51.544Z,10.15
2023-04-21T02:36:51.545Z,10.14
2023-04-21T02:37:51.515Z,10.15
2023-04-21T02:38:51.502Z,10.15
2023-04-21T02:39:51.487Z,10.15
2023-04-21T02:40:51.486Z,10.15
2023-04-21T02:41:51.468Z,10.15
2023-04-21T02:42:51.448Z,10.15
2023-04-21T02:43:51.433Z,10.15
2023-04-21T02:44:51.424Z,10.15
2023-04-21T02:45:51.408Z,10.14
2023-04-21T02:46:51.431Z,10.15
2023-04-21T02:47:51.678Z,10.17
2023-04-21T02:48:51.374Z,10.15
2023-04-21T02:49:51.362Z,10.17
2023-04-21T02:50:51.342Z,10.14
2023-04-21T02:51:51.325Z,10.17
2023-04-21T02:52:51.314Z,10.15
2023-04-21T02:53:51.299Z,10.17
2023-04-21T02:54:51.296Z,10.15
2023-04-21T02:55:51.271Z,10.15
2023-04-21T02:56:51.265Z,10.17
2023-04-21T02:57:51.245Z,10.15
2023-04-21T02:58:51.234Z,10.17
2023-04-21T02:59:51.216Z,10.15
2023-04-21T03:00:51.224Z,10.14
2023-04-21T03:01:51.189Z,10.15
2023-04-21T03:02:51.323Z,10.15
2023-04-21T03:03:51.287Z,10.14
2023-04-21T03:04:51.158Z,10.15
2023-04-21T03:05:51.146Z,10.17
2023-04-21T03:06:51.124Z,10.17
2023-04-21T03:07:51.110Z,10.15
2023-04-21T03:08:51.102Z,10.15
2023-04-21T03:09:51.080Z,10.17
2023-04-21T03:10:51.088Z,10.17
2023-04-21T03:11:51.056Z,10.17
2023-04-21T03:12:51.044Z,10.17
2023-04-21T03:13:51.029Z,10.15
2023-04-21T03:14:51.018Z,10.15
2023-04-21T03:15:51.025Z,10.17
2023-04-21T03:16:51.025Z,10.15
2023-04-21T03:17:51.014Z,10.14
2023-04-21T03:18:50.972Z,10.14
2023-04-21T03:19:50.972Z,10.15
2023-04-21T03:20:50.938Z,10.14
2023-04-21T03:21:50.928Z,10.15
2023-04-21T03:22:50.913Z,10.14
2023-04-21T03:23:50.897Z,10.15
2023-04-21T03:24:50.882Z,10.15
2023-04-21T03:25:50.876Z,10.12
2023-04-21T03:26:50.860Z,10.14
2023-04-21T03:27:50.845Z,10.14
2023-04-21T03:28:50.831Z,10.14
2023-04-21T03:29:50.817Z,10.14
2023-04-21T03:30:50.813Z,10.14
2023-04-21T03:31:50.848Z,10.14
2023-04-21T03:32:50.834Z,10.14
2023-04-21T03:33:50.769Z,10.14
2023-04-21T03:34:50.753Z,10.14
2023-04-21T03:35:50.772Z,10.14
2023-04-21T03:36:50.727Z,10.14
2023-04-21T03:37:50.708Z,10.14
2023-04-21T03:38:50.708Z,10.14
2023-04-21T03:39:50.686Z,10.14
2023-04-21T03:40:50.673Z,10.14
2023-04-21T03:41:50.658Z,10.14
2023-04-21T03:42:50.646Z,10.12
2023-04-21T03:43:50.631Z,10.14
2023-04-21T03:44:50.620Z,10.14
2023-04-21T03:45:50.655Z,10.14
2023-04-21T03:46:50.591Z,10.12
2023-04-21T03:47:50.607Z,10.12
2023-04-21T03:48:50.568Z,10.14
2023-04-21T03:49:50.558Z,10.12
2023-04-21T03:50:50.543Z,10.12
2023-04-21T03:51:50.547Z,10.14
2023-04-21T03:52:50.509Z,10.12
2023-04-21T03:53:50.501Z,10.12
2023-04-21T03:54:50.485Z,10.14
2023-04-21T03:55:50.469Z,10.12
2023-04-21T03:56:50.457Z,10.12
2023-04-21T03:57:50.448Z,10.10
2023-04-21T03:58:50.431Z,10.12
2023-04-21T03:59:50.419Z,10.14
2023-04-21T04:00:50.403Z,10.12
2023-04-21T04:01:50.391Z,10.12
2023-04-21T04:02:50.436Z,10.15
2023-04-21T04:03:50.459Z,10.12
2023-04-21T04:04:50.443Z,10.12
2023-04-21T04:05:50.334Z,10.12
2023-04-21T04:06:50.326Z,10.12
2023-04-21T04:07:50.334Z,10.12
2023-04-21T04:08:50.298Z,10.10
2023-04-21T04:09:50.282Z,10.10
2023-04-21T04:10:50.277Z,10.10
2023-04-21T04:11:50.257Z,10.10
2023-04-21T04:12:50.243Z,10.12
2023-04-21T04:13:50.228Z,10.12
2023-04-21T04:14:50.217Z,10.12
2023-04-21T04:15:50.229Z,10.12
2023-04-21T04:16:50.190Z,10.14
2023-04-21T04:17:50.246Z,10.12
2023-04-21T04:18:50.166Z,10.12
2023-04-21T04:19:50.148Z,10.12
2023-04-21T04:20:50.135Z,10.12
2023-04-21T04:21:50.122Z,10.12
2023-04-21T04:22:50.119Z,10.12
2023-04-21T04:23:50.117Z,10.12
2023-04-21T04:24:50.084Z,10.12
2023-04-21T04:25:50.067Z,10.14
2023-04-21T04:26:50.057Z,10.12
2023-04-21T04:27:50.042Z,10.12
2023-04-21T04:28:50.031Z,10.12
2023-04-21T04:29:50.015Z,10.12
2023-04-21T04:30:50.010Z,10.12
2023-04-21T04:31:50.014Z,10.12
2023-04-21T04:32:50.027Z,10.14
2023-04-21T04:33:50.547Z,10.14
2023-04-21T04:34:49.945Z,10.15
2023-04-21T04:35:49.931Z,10.14
2023-04-21T04:36:49.919Z,10.12
2023-04-21T04:37:49.906Z,10.15
2023-04-21T04:38:49.892Z,10.12
2023-04-21T04:39:49.903Z,10.15
2023-04-21T04:40:49.864Z,10.15
2023-04-21T04:41:49.850Z,10.15
2023-04-21T04:42:49.843Z,10.18
2023-04-21T04:43:49.824Z,10.18
2023-04-21T04:44:49.811Z,10.18
2023-04-21T04:45:49.800Z,10.18
2023-04-21T04:46:49.890Z,10.19
2023-04-21T04:47:49.853Z,10.18
2023-04-21T04:48:49.755Z,10.19
2023-04-21T04:49:49.744Z,10.19
2023-04-21T04:50:49.730Z,10.21
2023-04-21T04:51:49.718Z,10.21
2023-04-21T04:52:49.719Z,10.22
2023-04-21T04:53:49.691Z,10.22
2023-04-21T04:54:49.679Z,10.22
2023-04-21T04:55:49.692Z,10.24
2023-04-21T04:56:49.650Z,10.24
2023-04-21T04:57:49.634Z,10.24
2023-04-21T04:58:49.627Z,10.25
2023-04-21T04:59:49.606Z,10.26
2023-04-21T05:00:49.596Z,10.28
2023-04-21T05:01:49.621Z,10.28
2023-04-21T05:02:49.815Z,10.30
2023-04-21T05:03:49.707Z,10.30
2023-04-21T05:04:49.680Z,10.30
2023-04-21T05:05:49.528Z,10.30
2023-04-21T05:06:49.516Z,10.32
2023-04-21T05:07:49.502Z,10.33
2023-04-21T05:08:49.490Z,10.33
2023-04-21T05:09:49.480Z,10.32
2023-04-21T05:10:49.460Z,10.34
2023-04-21T05:11:49.474Z,10.34
2023-04-21T05:12:49.437Z,10.34
2023-04-21T05:13:49.421Z,10.34
2023-04-21T05:14:49.410Z,10.36
2023-04-21T05:15:49.397Z,10.37
2023-04-21T05:16:49.423Z,10.37
2023-04-21T05:17:49.386Z,10.37
2023-04-21T05:18:49.357Z,10.39
2023-04-21T05:19:49.344Z,10.39
2023-04-21T05:20:49.329Z,10.39
2023-04-21T05:21:49.323Z,10.40
2023-04-21T05:22:49.308Z,10.40
2023-04-21T05:23:49.288Z,10.42
2023-04-21T05:24:49.278Z,10.42
2023-04-21T05:25:49.260Z,10.43
2023-04-21T05:26:49.254Z,10.42
2023-04-21T05:27:49.258Z,10.43
2023-04-21T05:28:49.223Z,10.43
2023-04-21T05:29:49.209Z,10.43
2023-04-21T05:30:49.195Z,10.46
2023-04-21T05:31:49.249Z,10.47
2023-04-21T05:32:55.198Z,10.47
2023-04-21T05:33:49.156Z,10.50
2023-04-21T05:34:49.146Z,10.50
2023-04-21T05:35:49.130Z,10.50
2023-04-21T05:36:49.123Z,10.51
2023-04-21T05:37:49.100Z,10.50
2023-04-21T05:38:50.127Z,10.52
2023-04-21T05:39:49.075Z,10.52
2023-04-21T05:40:49.062Z,10.52
2023-04-21T05:41:49.048Z,10.52
2023-04-21T05:42:49.036Z,10.55
2023-04-21T05:43:49.049Z,10.54
2023-04-21T05:44:49.016Z,10.57
2023-04-21T05:45:48.996Z,10.57
2023-04-21T05:46:48.994Z,10.55
2023-04-21T05:47:48.995Z,10.55
2023-04-21T05:48:48.954Z,10.55
2023-04-21T05:49:48.960Z,10.58
2023-04-21T05:50:48.953Z,10.58
2023-04-21T05:51:48.914Z,10.59
2023-04-21T05:52:48.899Z,10.61
2023-04-21T05:53:48.884Z,10.61
2023-04-21T05:54:48.882Z,10.62
2023-04-21T05:55:48.860Z,10.62
2023-04-21T05:56:48.859Z,10.59
2023-04-21T05:57:48.834Z,10.59
2023-04-21T05:58:48.818Z,10.61
2023-04-21T05:59:48.831Z,10.59
2023-04-21T06:00:49.231Z,10.62
2023-04-21T06:01:48.785Z,10.62
2023-04-21T06:02:48.974Z,10.62
2023-04-21T06:03:49.023Z,10.62
2023-04-21T06:04:48.946Z,10.62
2023-04-21T06:05:48.723Z,10.64
2023-04-21T06:06:48.728Z,10.64
2023-04-21T06:07:48.701Z,10.62
2023-04-21T06:08:48.688Z,10.61
2023-04-21T06:09:48.671Z,10.62
2023-04-21T06:10:48.657Z,10.64
2023-04-21T06:11:48.651Z,10.62
2023-04-21T06:12:48.630Z,10.62
2023-04-21T06:13:48.617Z,10.65
2023-04-21T06:14:48.599Z,10.64
2023-04-21T06:15:48.652Z,10.65
2023-04-21T06:16:48.576Z,10.65
2023-04-21T06:17:48.595Z,10.65
2023-04-21T06:18:48.547Z,10.65
2023-04-21T06:19:48.538Z,10.67
2023-04-21T06:20:48.523Z,10.67
2023-04-21T06:22:22.711Z,10.67
2023-04-21T06:23:22.700Z,10.67
2023-04-21T06:24:22.689Z,10.67
2023-04-21T06:25:22.670Z,10.67
2023-04-21T06:26:22.667Z,10.67
2023-04-21T06:27:22.642Z,10.64
2023-04-21T06:28:22.633Z,10.64
2023-04-21T06:29:22.624Z,10.65
2023-04-21T06:30:22.606Z,10.64
2023-04-21T06:31:22.710Z,10.65
2023-04-21T06:32:22.610Z,10.64
2023-04-21T06:33:22.570Z,10.62
2023-04-21T06:34:22.687Z,10.65
2023-04-21T06:35:22.545Z,10.65
2023-04-21T06:36:22.526Z,10.67
2023-04-21T06:37:22.533Z,10.67
2023-04-21T06:38:22.497Z,10.67
2023-04-21T06:39:22.489Z,10.69
2023-04-21T06:40:22.474Z,10.69
2023-04-21T06:41:24.742Z,10.69
2023-04-21T06:42:22.449Z,10.65
2023-04-21T06:43:22.433Z,10.64
2023-04-21T06:44:22.420Z,10.62
2023-04-21T06:45:22.422Z,10.58
2023-04-21T06:46:22.440Z,10.59
2023-04-21T06:47:22.492Z,10.61
2023-04-21T06:48:22.370Z,10.61
2023-04-21T06:49:22.430Z,10.62
2023-04-21T06:50:22.338Z,10.62
2023-04-21T06:51:22.326Z,10.64
2023-04-21T06:52:22.317Z,10.62
2023-04-21T06:53:22.317Z,10.61
2023-04-21T06:54:22.294Z,10.62
2023-04-21T06:55:22.273Z,10.62
2023-04-21T06:56:22.259Z,10.62
2023-04-21T06:57:22.244Z,10.62
2023-04-21T06:58:22.238Z,10.61
2023-04-21T06:59:22.433Z,10.59
2023-04-21T07:00:22.207Z,10.62
2023-04-21T07:01:22.258Z,10.62
2023-04-21T07:02:22.258Z,10.64
2023-04-21T07:03:22.392Z,10.64
2023-04-21T07:04:22.221Z,10.64
2023-04-21T07:05:22.136Z,10.65
2023-04-21T07:06:22.130Z,10.64
2023-04-21T07:07:22.114Z,10.65
2023-04-21T07:08:22.103Z,10.67
2023-04-21T07:09:22.292Z,10.67
2023-04-21T07:10:22.082Z,10.67
2023-04-21T07:11:22.076Z,10.69
2023-04-21T07:12:22.054Z,10.67
2023-04-21T07:13:22.056Z,10.69
2023-04-21T07:14:22.028Z,10.69
2023-04-21T07:15:22.017Z,10.67
2023-04-21T07:16:22.036Z,10.67
2023-04-21T07:17:22.007Z,10.67
2023-04-21T07:18:21.976Z,10.69
2023-04-21T07:19:22.100Z,10.64
2023-04-21T07:20:21.990Z,10.64
2023-04-21T07:21:21.940Z,10.65
2023-04-21T07:22:21.944Z,10.65
2023-04-21T07:23:21.910Z,10.65
2023-04-21T07:24:21.903Z,10.64
2023-04-21T07:25:21.883Z,10.64
2023-04-21T07:26:21.874Z,10.64
2023-04-21T07:27:21.857Z,10.62
2023-04-21T07:28:21.854Z,10.62
2023-04-21T07:29:21.887Z,10.62
2023-04-21T07:30:21.818Z,10.64
2023-04-21T07:31:21.884Z,10.62
2023-04-21T07:32:21.828Z,10.61
2023-04-21T07:33:21.776Z,10.62
2023-04-21T07:34:21.776Z,10.64
2023-04-21T07:35:21.777Z,10.65
2023-04-21T07:36:21.886Z,10.67
2023-04-21T07:37:21.725Z,10.69
2023-04-21T07:38:21.725Z,10.70
2023-04-21T07:39:22.013Z,10.69
2023-04-21T07:40:21.689Z,10.70
2023-04-21T07:41:21.722Z,10.70
2023-04-21T07:42:21.659Z,10.69
2023-04-21T07:43:21.654Z,10.70
2023-04-21T07:44:21.644Z,10.70
2023-04-21T07:45:21.624Z,10.72
2023-04-21T07:46:21.722Z,10.70
2023-04-21T07:47:21.597Z,10.73
2023-04-21T07:48:21.581Z,10.73
2023-04-21T07:49:21.767Z,10.76
2023-04-21T07:50:21.554Z,10.76
2023-04-21T07:51:21.595Z,10.76
2023-04-21T07:52:21.528Z,10.76
2023-04-21T07:53:21.515Z,10.76
2023-04-21T07:54:21.614Z,10.76
2023-04-21T07:55:21.512Z,10.77
2023-04-21T07:56:21.481Z,10.79
2023-04-21T07:57:21.458Z,10.77
2023-04-21T07:58:21.449Z,10.79
2023-04-21T07:59:21.601Z,10.79
2023-04-21T08:00:21.456Z,10.80
2023-04-21T08:01:21.518Z,10.80
2023-04-21T08:02:21.530Z,10.82
2023-04-21T08:03:24.361Z,10.80
2023-04-21T08:04:21.732Z,10.82
2023-04-21T08:05:21.461Z,10.82
2023-04-21T08:06:21.542Z,10.82
2023-04-21T08:07:21.714Z,10.83
2023-04-21T08:08:21.329Z,10.83
2023-04-21T08:09:21.534Z,10.85
2023-04-21T08:10:21.289Z,10.85
2023-04-21T08:11:21.296Z,10.87
2023-04-21T08:12:21.260Z,10.87
2023-04-21T08:13:21.251Z,10.87
2023-04-21T08:14:21.393Z,10.88
2023-04-21T08:15:21.229Z,10.90
2023-04-21T08:16:21.269Z,10.90
2023-04-21T08:17:21.224Z,10.88
2023-04-21T08:18:22.580Z,10.90
2023-04-21T08:19:21.419Z,10.91
2023-04-21T08:20:21.159Z,10.91
2023-04-21T08:21:21.150Z,10.91
2023-04-21T08:22:21.185Z,10.95
2023-04-21T08:23:21.203Z,10.94
2023-04-21T08:24:21.237Z,10.94
2023-04-21T08:25:21.134Z,10.94
2023-04-21T08:26:21.084Z,10.94
2023-04-21T08:27:21.077Z,10.97
2023-04-21T08:28:21.058Z,10.98
2023-04-21T08:29:21.045Z,11.00
2023-04-21T08:30:21.057Z,10.98
2023-04-21T08:31:21.189Z,10.97
2023-04-21T08:32:21.001Z,10.97
2023-04-21T08:33:21.109Z,10.98
2023-04-21T08:34:21.735Z,10.98
2023-04-21T08:35:20.966Z,10.97
2023-04-21T08:36:28.950Z,10.98
2023-04-21T08:37:20.938Z,11.00
2023-04-21T08:38:20.920Z,10.98
2023-04-21T08:39:21.209Z,11.01
2023-04-21T08:40:20.907Z,11.01
2023-04-21T08:41:20.888Z,11.10
2023-04-21T08:42:20.867Z,11.13
2023-04-21T08:43:20.860Z,11.13
2023-04-21T08:44:21.156Z,11.13
2023-04-21T08:45:20.850Z,11.12
2023-04-21T08:46:20.872Z,11.15
2023-04-21T08:47:20.912Z,11.18
2023-04-21T08:48:20.792Z,11.15
2023-04-21T08:49:21.113Z,11.13
2023-04-21T08:50:20.851Z,11.12
2023-04-21T08:51:20.756Z,11.09
2023-04-21T08:52:20.765Z,11.09
2023-04-21T08:53:20.731Z,11.09
2023-04-21T08:54:20.715Z,11.08
2023-04-21T08:55:20.722Z,11.10
2023-04-21T08:56:20.686Z,11.12
2023-04-21T08:57:20.671Z,11.15
2023-04-21T08:58:20.663Z,11.13
2023-04-21T08:59:20.759Z,11.13
2023-04-21T09:00:20.670Z,11.16
2023-04-21T09:01:20.690Z,11.21
2023-04-21T09:02:20.710Z,11.21
2023-04-21T09:03:26.102Z,11.21
2023-04-21T09:04:21.721Z,11.24
2023-04-21T09:05:20.806Z,11.25
2023-04-21T09:06:20.708Z,11.27
2023-04-21T09:07:20.544Z,11.25
2023-04-21T09:08:20.530Z,11.27
2023-04-21T09:09:20.823Z,11.27
2023-04-21T09:10:20.601Z,11.25
2023-04-21T09:11:20.517Z,11.24
2023-04-21T09:12:20.493Z,11.24
2023-04-21T09:13:20.466Z,11.19
2023-04-21T09:14:20.451Z,11.21
2023-04-21T09:15:20.444Z,11.21
2023-04-21T09:16:20.443Z,11.19
2023-04-21T09:17:20.434Z,11.16
2023-04-21T09:18:20.403Z,11.16
2023-04-21T09:19:20.534Z,11.21
2023-04-21T09:20:20.400Z,11.25
2023-04-21T09:21:20.428Z,11.27
2023-04-21T09:22:20.360Z,11.28
2023-04-21T09:23:20.388Z,11.28
2023-04-21T09:24:20.324Z,11.25
2023-04-21T09:25:20.309Z,11.24
2023-04-21T09:26:20.297Z,11.24
2023-04-21T09:27:20.306Z,11.24
2023-04-21T09:28:20.271Z,11.29
2023-04-21T09:29:20.503Z,11.35
2023-04-21T09:30:20.276Z,11.38
2023-04-21T09:31:20.337Z,11.38
2023-04-21T09:32:20.218Z,11.39
2023-04-21T09:33:29.066Z,11.39
2023-04-21T09:34:21.230Z,11.41
2023-04-21T09:35:20.180Z,11.41
2023-04-21T09:36:20.166Z,11.43
2023-04-21T09:37:20.154Z,11.39
2023-04-21T09:38:20.139Z,11.41
2023-04-21T09:39:38.264Z,11.44
2023-04-21T09:40:21.153Z,11.47
2023-04-21T09:41:20.103Z,11.47
2023-04-21T09:42:20.089Z,11.46
2023-04-21T09:43:20.110Z,11.46
2023-04-21T09:44:21.301Z,11.47
2023-04-21T09:46:20.082Z,11.47
2023-04-21T09:47:20.153Z,11.50
2023-04-21T09:48:21.924Z,11.52
2023-04-21T09:49:19.997Z,11.54
2023-04-21T09:50:31.009Z,11.56
2023-04-21T09:51:35.234Z,11.56
2023-04-21T09:52:21.062Z,11.59
2023-04-21T09:53:19.951Z,11.59
2023-04-21T09:54:29.004Z,11.57
2023-04-21T09:55:20.962Z,11.59
2023-04-21T09:56:19.903Z,11.57
2023-04-21T09:57:19.892Z,11.56
2023-04-21T09:58:19.873Z,11.54
2023-04-21T09:59:21.749Z,11.54
2023-04-21T10:00:19.855Z,11.56
2023-04-21T10:01:19.882Z,11.59
2023-04-21T10:02:20.014Z,11.65
2023-04-21T10:03:20.037Z,11.65
2023-04-21T10:04:20.537Z,11.61
2023-04-21T10:05:19.820Z,11.59
2023-04-21T10:06:19.785Z,11.64
2023-04-21T10:07:19.757Z,11.65
2023-04-21T10:08:19.844Z,11.64
2023-04-21T10:09:19.738Z,11.64
2023-04-21T10:10:19.728Z,11.64
2023-04-21T10:11:19.708Z,11.61
2023-04-21T10:12:19.690Z,11.64
2023-04-21T10:13:19.677Z,11.64
2023-04-21T10:14:19.868Z,11.65
2023-04-21T10:15:19.677Z,11.64
2023-04-21T10:16:19.674Z,11.67
2023-04-21T10:17:19.663Z,11.71
2023-04-21T10:18:19.625Z,11.74
2023-04-21T10:19:19.825Z,11.72
2023-04-21T10:20:19.671Z,11.74
2023-04-21T10:21:19.578Z,11.77
2023-04-21T10:22:20.712Z,11.78
2023-04-21T10:23:19.550Z,11.78
2023-04-21T10:24:19.781Z,11.77
2023-04-21T10:25:19.519Z,11.77
2023-04-21T10:26:19.503Z,11.77
2023-04-21T10:27:19.494Z,11.75
2023-04-21T10:28:19.481Z,11.75
2023-04-21T10:29:19.554Z,11.75
2023-04-21T10:30:19.459Z,11.74
2023-04-21T10:31:19.505Z,11.72
2023-04-21T10:32:19.458Z,11.74
2023-04-21T10:33:19.412Z,11.78
2023-04-21T10:34:19.718Z,11.78
2023-04-21T10:35:19.392Z,11.80
2023-04-21T10:36:19.378Z,11.80
2023-04-21T10:37:19.361Z,11.78
2023-04-21T10:38:19.347Z,11.80
2023-04-21T10:39:19.535Z,11.83
2023-04-21T10:40:19.741Z,11.77
2023-04-21T10:41:19.312Z,11.74
2023-04-21T10:42:19.298Z,11.70
2023-04-21T10:43:19.286Z,11.70
2023-04-21T10:44:19.402Z,11.68
2023-04-21T10:45:19.258Z,11.70
2023-04-21T10:46:19.285Z,11.70
2023-04-21T10:47:19.260Z,11.70
2023-04-21T10:48:19.214Z,11.67
2023-04-21T10:49:19.208Z,11.65
2023-04-21T10:50:19.204Z,11.65
2023-04-21T10:51:19.185Z,11.70
2023-04-21T10:52:19.163Z,11.75
2023-04-21T10:53:19.152Z,11.77
2023-04-21T10:54:19.366Z,11.82
2023-04-21T10:55:19.126Z,11.83
2023-04-21T10:56:19.112Z,11.82
2023-04-21T10:57:19.099Z,11.80
2023-04-21T10:58:19.095Z,11.80
2023-04-21T10:59:19.074Z,11.82
2023-04-21T11:00:19.055Z,11.82
2023-04-21T11:01:19.074Z,11.83
2023-04-21T11:02:19.205Z,11.85
2023-04-21T11:03:19.139Z,11.85
2023-04-21T11:04:19.440Z,11.90
2023-04-21T11:05:18.997Z,11.90
2023-04-21T11:06:18.981Z,11.95
2023-04-21T11:07:18.963Z,11.96
2023-04-21T11:08:18.950Z,11.96
2023-04-21T11:09:18.949Z,11.96
2023-04-21T11:10:18.924Z,11.98
2023-04-21T11:11:18.916Z,11.98
2023-04-21T11:12:18.904Z,11.96
2023-04-21T11:13:18.884Z,11.96
2023-04-21T11:14:19.190Z,11.96
2023-04-21T11:15:18.855Z,12.03
2023-04-21T11:16:18.862Z,12.08
2023-04-21T11:17:18.835Z,12.10
2023-04-21T11:18:18.822Z,12.11
2023-04-21T11:19:18.834Z,12.12
2023-04-21T11:20:18.792Z,12.11
2023-04-21T11:21:18.847Z,12.08
2023-04-21T11:22:18.762Z,12.07
2023-04-21T11:23:18.782Z,12.07
2023-04-21T11:24:19.030Z,12.04
2023-04-21T11:25:18.919Z,12.10
2023-04-21T11:26:18.708Z,12.12
2023-04-21T11:27:18.696Z,12.14
2023-04-21T11:28:18.694Z,12.14
2023-04-21T11:29:18.673Z,12.20
2023-04-21T11:30:18.664Z,12.25
2023-04-21T11:31:18.751Z,12.25
2023-04-21T11:32:18.661Z,12.26
2023-04-21T11:33:18.654Z,12.23
2023-04-21T11:34:18.840Z,12.19
2023-04-21T11:35:18.729Z,12.18
2023-04-21T11:36:18.587Z,12.14
2023-04-21T11:37:18.568Z,12.11
2023-04-21T11:38:18.572Z,12.10
2023-04-21T11:39:20.869Z,12.11
2023-04-21T11:40:18.525Z,12.10
2023-04-21T11:41:18.513Z,12.11
2023-04-21T11:42:18.502Z,12.11
2023-04-21T11:43:18.491Z,12.14
2023-04-21T11:44:18.477Z,12.19
2023-04-21T11:45:21.296Z,12.18
2023-04-21T11:46:18.585Z,12.14
2023-04-21T11:47:18.439Z,12.11
2023-04-21T11:48:18.431Z,12.08
2023-04-21T11:49:18.442Z,12.08
2023-04-21T11:50:18.399Z,12.07
2023-04-21T11:51:20.700Z,12.07
2023-04-21T11:52:18.369Z,12.05
2023-04-21T11:53:18.362Z,12.03
2023-04-21T11:54:18.342Z,12.01
2023-04-21T11:55:18.332Z,11.98
2023-04-21T11:56:18.319Z,11.98
2023-04-21T11:57:18.310Z,11.98
2023-04-21T11:58:18.288Z,11.96
2023-04-21T11:59:18.277Z,12.00
2023-04-21T12:00:18.270Z,11.98
2023-04-21T12:01:18.264Z,12.00
2023-04-21T12:02:18.347Z,11.96
2023-04-21T12:03:18.405Z,11.95
2023-04-21T12:04:18.321Z,11.95
2023-04-21T12:05:18.198Z,11.95
2023-04-21T12:06:18.278Z,11.92
2023-04-21T12:07:18.196Z,11.92
2023-04-21T12:08:18.156Z,11.89
2023-04-21T12:09:18.152Z,11.89
2023-04-21T12:10:18.148Z,11.92
2023-04-21T12:11:18.119Z,11.95
2023-04-21T12:12:18.104Z,11.95
2023-04-21T12:13:18.293Z,12.00
2023-04-21T12:14:18.082Z,12.03
2023-04-21T12:15:18.068Z,12.10
2023-04-21T12:16:18.131Z,12.20
2023-04-21T12:17:18.039Z,12.19
2023-04-21T12:18:18.026Z,12.14
2023-04-21T12:19:18.012Z,12.10
2023-04-21T12:20:18.008Z,12.07
2023-04-21T12:21:17.986Z,12.04
2023-04-21T12:22:17.973Z,12.00
2023-04-21T12:23:17.980Z,11.96
2023-04-21T12:24:17.951Z,11.93
2023-04-21T12:25:17.951Z,11.95
2023-04-21T12:26:17.918Z,11.92
2023-04-21T12:27:17.905Z,11.92
2023-04-21T12:28:17.896Z,11.93
2023-04-21T12:29:17.880Z,11.93
2023-04-21T12:30:17.868Z,11.95
2023-04-21T12:31:17.884Z,11.96
2023-04-21T12:32:17.885Z,11.96
2023-04-21T12:33:17.995Z,11.95
2023-04-21T12:34:17.815Z,11.95
2023-04-21T12:35:17.825Z,11.93
2023-04-21T12:36:17.786Z,11.93
2023-04-21T12:37:17.776Z,11.93
2023-04-21T12:38:17.762Z,11.95
2023-04-21T12:39:17.778Z,11.96
2023-04-21T12:40:17.744Z,11.96
2023-04-21T12:41:17.722Z,11.95
2023-04-21T12:42:17.714Z,11.98
2023-04-21T12:43:17.703Z,12.00
2023-04-21T12:44:17.692Z,12.03
2023-04-21T12:45:17.728Z,12.05
2023-04-21T12:46:17.673Z,12.07
2023-04-21T12:47:17.641Z,12.07
2023-04-21T12:48:17.654Z,12.04
2023-04-21T12:49:17.614Z,12.05
2023-04-21T12:50:17.611Z,12.05
2023-04-21T12:51:17.596Z,12.07
2023-04-21T12:52:17.579Z,12.08
2023-04-21T12:53:17.578Z,12.10
2023-04-21T12:54:17.554Z,12.11